Time;durP1;ratioP1;P1;durP2;ratioP2;P2;SDS_P1;SDS_P2;PMS_P1;PMS_P2;Temp;Humidity;BMP_temperature;BMP_pressure;BME280_temperature;BME280_humidity;BME280_pressure;Samples;Min_cycle;Max_cycle;Signal;HPM_P1;HPM_P2
2021/12/01 00:00:22;;;;;;;;;1.00;1.00;;;;;10.56;100.00;100704.16;5017247;28;45574;-77
2021/12/01 00:02:54;;;;;;;;;2.50;1.50;;;;;10.56;100.00;100709.31;5017053;28;45620;-76
2021/12/01 00:05:25;;;;;;;;;1.00;1.00;;;;;10.52;100.00;100703.13;5016947;28;45730;-75
2021/12/01 00:07:51;;;;;;;;;1.75;1.75;;;;;10.57;100.00;100692.97;5014517;28;45384;-75
2021/12/01 00:10:19;;;;;;;;;1.50;1.50;;;;;10.61;100.00;100681.03;5016536;28;45533;-78
2021/12/01 00:12:45;;;;;;;;;1.75;1.00;;;;;10.58;100.00;100683.50;4999270;28;45400;-76
2021/12/01 00:15:11;;;;;;;;;1.50;1.50;;;;;10.55;100.00;100673.91;5017516;28;45475;-76
2021/12/01 00:17:37;;;;;;;;;2.75;2.25;;;;;10.53;100.00;100662.59;5017821;28;45394;-75
2021/12/01 00:20:07;;;;;;;;;2.25;2.25;;;;;10.58;100.00;100667.94;5017900;28;45455;-76
2021/12/01 00:22:33;;;;;;;;;2.00;2.00;;;;;10.58;100.00;100663.69;5017073;28;46069;-75
2021/12/01 00:24:58;;;;;;;;;1.75;1.75;;;;;10.58;100.00;100634.31;5017105;28;45327;-76
2021/12/01 00:27:24;;;;;;;;;4.25;4.25;;;;;10.59;100.00;100615.38;5017488;28;45262;-75
2021/12/01 00:29:50;;;;;;;;;5.00;3.00;;;;;10.59;100.00;100613.63;4999509;28;45499;-76
2021/12/01 00:32:16;;;;;;;;;4.00;3.00;;;;;10.61;100.00;100593.00;5017536;28;45568;-74
2021/12/01 00:34:42;;;;;;;;;2.75;2.25;;;;;10.62;100.00;100599.97;5017260;28;45775;-75
2021/12/01 00:37:08;;;;;;;;;3.75;3.00;;;;;10.63;100.00;100589.66;5017004;28;45271;-75
2021/12/01 00:39:34;;;;;;;;;3.00;2.00;;;;;10.63;100.00;100584.47;5016319;28;45406;-74
2021/12/01 00:42:00;;;;;;;;;4.00;4.00;;;;;10.60;100.00;100555.88;5016509;28;46237;-76
2021/12/01 00:44:29;;;;;;;;;4.00;4.00;;;;;10.64;100.00;100549.09;5016862;28;45932;-76
2021/12/01 00:47:04;;;;;;;;;3.75;3.25;;;;;10.66;100.00;100542.28;5016493;28;45408;-75
2021/12/01 00:49:32;;;;;;;;;5.00;5.00;;;;;10.64;100.00;100544.84;4997349;28;45396;-76
2021/12/01 00:51:58;;;;;;;;;8.00;5.25;;;;;10.66;100.00;100537.09;4996730;28;46144;-76
2021/12/01 00:54:23;;;;;;;;;6.50;5.75;;;;;10.59;100.00;100517.84;4996826;28;45475;-76
2021/12/01 00:56:49;;;;;;;;;7.00;5.00;;;;;10.63;100.00;100543.06;4996014;28;45458;-75
2021/12/01 00:59:16;;;;;;;;;6.75;3.25;;;;;10.65;100.00;100530.16;4997399;28;45381;-76
2021/12/01 01:01:44;;;;;;;;;5.25;2.75;;;;;10.55;100.00;100499.56;5000320;28;45321;-75
2021/12/01 01:04:09;;;;;;;;;7.00;5.50;;;;;10.62;100.00;100527.47;4998609;28;45322;-76
2021/12/01 01:06:35;;;;;;;;;5.50;4.75;;;;;10.63;100.00;100490.41;5016715;28;45333;-76
2021/12/01 01:09:05;;;;;;;;;6.00;4.75;;;;;10.57;100.00;100488.47;5016741;28;45572;-76
2021/12/01 01:17:00;;;;;;;;;5.25;3.50;;;;;10.62;100.00;100476.56;5016728;28;45446;-76
2021/12/01 01:19:26;;;;;;;;;4.50;4.50;;;;;10.64;100.00;100463.66;5016857;28;45383;-76
2021/12/01 01:21:52;;;;;;;;;4.25;4.00;;;;;10.51;100.00;100452.88;5014945;28;45482;-75
2021/12/01 01:24:19;;;;;;;;;5.50;4.00;;;;;10.58;100.00;100434.97;5015443;28;45985;-75
2021/12/01 01:26:46;;;;;;;;;3.25;3.25;;;;;10.67;100.00;100461.22;5015009;28;45461;-76
2021/12/01 01:29:11;;;;;;;;;4.00;3.50;;;;;10.64;100.00;100445.53;5015116;28;45487;-75
2021/12/01 01:31:37;;;;;;;;;2.75;2.25;;;;;10.62;100.00;100452.41;5016185;28;46244;-77
2021/12/01 01:34:04;;;;;;;;;2.50;2.00;;;;;10.62;100.00;100450.69;5015579;28;45542;-76
2021/12/01 01:36:29;;;;;;;;;1.50;1.50;;;;;10.58;100.00;100437.56;5016331;28;45320;-76
2021/12/01 01:38:57;;;;;;;;;2.00;2.00;;;;;10.60;100.00;100447.13;5016236;28;45646;-76
2021/12/01 01:41:22;;;;;;;;;1.00;1.00;;;;;10.60;100.00;100441.09;5014832;28;46238;-76
2021/12/01 01:43:50;;;;;;;;;2.00;0.75;;;;;10.55;100.00;100448.69;5015992;28;45337;-76
2021/12/01 01:46:16;;;;;;;;;2.50;2.50;;;;;10.58;100.00;100434.97;5016715;28;45340;-76
2021/12/01 01:48:56;;;;;;;;;1.75;1.00;;;;;10.58;100.00;100427.19;5016595;28;45715;-76
2021/12/01 01:51:26;;;;;;;;;2.75;2.00;;;;;10.47;100.00;100412.16;5015536;28;45596;-75
2021/12/01 01:53:54;;;;;;;;;1.00;1.00;;;;;10.55;100.00;100427.06;4995871;28;45332;-76
2021/12/01 01:56:21;;;;;;;;;4.25;2.00;;;;;10.53;100.00;100446.00;4996229;28;45271;-76
2021/12/01 01:58:47;;;;;;;;;2.00;2.00;;;;;10.48;100.00;100411.31;4996874;28;45475;-76
2021/12/01 02:04:06;;;;;;;;;3.00;2.00;;;;;10.45;100.00;100421.53;4976443;28;45889;-77
2021/12/01 02:06:32;;;;;;;;;2.50;2.50;;;;;10.38;100.00;100407.47;4996019;28;45574;-77
2021/12/01 02:08:58;;;;;;;;;1.75;1.75;;;;;10.41;100.00;100423.97;5009588;28;45436;-78
2021/12/01 02:11:27;;;;;;;;;2.75;1.75;;;;;10.44;100.00;100388.72;5015592;28;45933;-78
2021/12/01 02:13:53;;;;;;;;;2.75;2.00;;;;;10.46;100.00;100392.25;5015610;28;45910;-76
2021/12/01 02:16:20;;;;;;;;;1.00;1.00;;;;;10.47;100.00;100388.84;5015891;28;45424;-77
2021/12/01 02:18:46;;;;;;;;;1.00;1.00;;;;;10.48;100.00;100379.38;5016329;28;45433;-79
2021/12/01 02:21:27;;;;;;;;;3.75;1.00;;;;;10.44;100.00;100362.84;5015285;28;46283;-79
2021/12/01 02:23:59;;;;;;;;;1.00;1.00;;;;;10.45;100.00;100354.25;5015110;28;45435;-78
2021/12/01 02:26:26;;;;;;;;;1.00;1.00;;;;;10.47;100.00;100362.97;5015853;28;45333;-78
2021/12/01 02:28:57;;;;;;;;;1.25;1.00;;;;;10.49;100.00;100361.31;5015290;28;45163;-77
2021/12/01 02:31:26;;;;;;;;;3.00;1.00;;;;;10.50;100.00;100347.56;5015605;28;45858;-78
2021/12/01 02:33:53;;;;;;;;;0.25;0.00;;;;;10.47;100.00;100339.66;5016536;28;45345;-78
2021/12/01 02:36:19;;;;;;;;;1.75;1.00;;;;;10.57;100.00;100327.06;5001228;28;45351;-77
2021/12/01 02:38:47;;;;;;;;;2.00;1.00;;;;;10.59;100.00;100315.06;5019614;28;45273;-78
2021/12/01 02:41:14;;;;;;;;;2.50;1.00;;;;;10.58;100.00;100310.72;5018548;28;46219;-79
2021/12/01 02:43:40;;;;;;;;;1.25;1.25;;;;;10.53;100.00;100289.84;5018256;28;45443;-79
2021/12/01 02:46:06;;;;;;;;;1.00;1.00;;;;;10.62;100.00;100313.47;5018886;28;45261;-75
2021/12/01 02:48:36;;;;;;;;;2.00;2.00;;;;;10.60;100.00;100275.41;5019058;28;45317;-77
2021/12/01 02:51:04;;;;;;;;;4.00;3.00;;;;;10.62;100.00;100299.66;5018432;28;46156;-77
2021/12/01 02:53:30;;;;;;;;;2.25;2.25;;;;;10.56;100.00;100271.84;5018614;28;45795;-77
2021/12/01 02:55:58;;;;;;;;;2.00;2.00;;;;;10.56;100.00;100256.31;5018528;28;45341;-76
2021/12/01 02:58:27;;;;;;;;;3.00;3.00;;;;;10.47;100.00;100230.97;5019035;28;45540;-76
2021/12/01 03:00:55;;;;;;;;;3.00;3.00;;;;;10.49;100.00;100241.38;5018424;28;46171;-77
2021/12/01 03:03:22;;;;;;;;;3.00;2.00;;;;;10.43;100.00;100208.38;5018096;28;45644;-76
2021/12/01 03:05:49;;;;;;;;;2.00;2.00;;;;;10.44;100.00;100220.50;5000695;28;45365;-76
2021/12/01 03:08:16;;;;;;;;;2.00;2.00;;;;;10.45;100.00;100211.03;5019333;28;45581;-76
2021/12/01 03:10:49;;;;;;;;;2.00;2.00;;;;;10.44;100.00;100233.44;5017801;28;45828;-76
2021/12/01 03:13:16;;;;;;;;;4.25;3.25;;;;;10.44;100.00;100214.47;5018686;28;45770;-75
2021/12/01 03:15:42;;;;;;;;;2.75;2.00;;;;;10.41;100.00;100207.47;5018492;28;45426;-75
2021/12/01 03:18:09;;;;;;;;;4.00;2.75;;;;;10.38;100.00;100212.53;5018649;28;45438;-75
2021/12/01 03:20:35;;;;;;;;;1.75;1.00;;;;;10.40;100.00;100222.94;5018177;28;45353;-76
2021/12/01 03:23:00;;;;;;;;;1.75;1.75;;;;;10.29;100.00;100186.31;5017970;28;45254;-75
2021/12/01 03:25:27;;;;;;;;;1.00;1.00;;;;;10.36;100.00;100193.44;5018379;28;45264;-75
2021/12/01 03:27:53;;;;;;;;;1.00;1.00;;;;;10.26;100.00;100161.19;5018539;28;45572;-76
2021/12/01 03:30:19;;;;;;;;;1.50;1.50;;;;;10.40;100.00;100173.75;5018032;28;46075;-76
2021/12/01 03:32:45;;;;;;;;;1.00;1.00;;;;;10.42;100.00;100159.16;5018097;28;45417;-76
2021/12/01 03:35:14;;;;;;;;;1.00;1.00;;;;;10.38;100.00;100159.06;5018070;28;45402;-77
2021/12/01 03:37:42;;;;;;;;;1.00;1.00;;;;;10.44;100.00;100170.47;5018573;28;45531;-76
2021/12/01 03:40:09;;;;;;;;;0.50;0.50;;;;;10.43;100.00;100148.00;5017884;28;45408;-76
2021/12/01 03:42:34;;;;;;;;;0.50;0.50;;;;;10.40;100.00;100133.25;5017841;28;45312;-76
2021/12/01 03:45:00;;;;;;;;;0.00;0.00;;;;;10.38;100.00;100128.00;5017251;28;45435;-76
2021/12/01 03:47:27;;;;;;;;;0.00;0.00;;;;;10.43;100.00;100133.34;5000337;28;45368;-76
2021/12/01 03:49:53;;;;;;;;;2.00;0.00;;;;;10.44;100.00;100121.28;5017671;28;46129;-77
2021/12/01 03:52:19;;;;;;;;;0.50;0.50;;;;;10.33;100.00;100115.69;5017861;28;45285;-75
2021/12/01 03:54:46;;;;;;;;;0.75;0.75;;;;;10.43;100.00;100104.00;5018171;28;45320;-75
2021/12/01 03:57:15;;;;;;;;;1.00;0.00;;;;;10.38;100.00;100089.19;5017651;28;45533;-76
2021/12/01 03:59:42;;;;;;;;;0.00;0.00;;;;;10.39;100.00;100079.75;5017683;28;45321;-75
2021/12/01 04:02:08;;;;;;;;;0.50;0.50;;;;;10.41;100.00;100066.84;5017493;28;45736;-75
2021/12/01 04:04:35;;;;;;;;;0.75;0.75;;;;;10.41;100.00;100072.91;5017628;28;45255;-75
2021/12/01 04:07:00;;;;;;;;;0.75;0.75;;;;;10.42;100.00;100056.53;5017737;28;45353;-75
2021/12/01 04:09:27;;;;;;;;;0.00;0.00;;;;;10.42;100.00;100045.31;5017426;28;45985;-75
2021/12/01 04:11:53;;;;;;;;;2.00;1.00;;;;;10.48;100.00;100053.25;5017500;28;45447;-75
2021/12/01 04:14:19;;;;;;;;;1.00;1.00;;;;;10.47;100.00;100030.81;5017707;28;45395;-74
2021/12/01 04:16:45;;;;;;;;;1.75;0.25;;;;;10.47;100.00;100018.75;5018019;28;45597;-74
2021/12/01 04:19:11;;;;;;;;;1.00;1.00;;;;;10.47;100.00;100021.34;5017081;28;45982;-74
2021/12/01 04:21:38;;;;;;;;;0.00;0.00;;;;;10.51;100.00;100028.38;5016938;28;45262;-75
2021/12/01 04:24:04;;;;;;;;;0.00;0.00;;;;;10.50;100.00;100005.03;5017206;28;45375;-74
2021/12/01 04:26:31;;;;;;;;;0.75;0.75;;;;;10.53;100.00;100000.81;5017672;28;45372;-74
2021/12/01 04:28:58;;;;;;;;;0.50;0.50;;;;;10.56;100.00;100007.81;5016966;28;45393;-76
2021/12/01 04:31:25;;;;;;;;;0.00;0.00;;;;;10.57;100.00;99988.88;5016800;28;45368;-76
2021/12/01 04:33:50;;;;;;;;;0.00;0.00;;;;;10.52;100.00;99967.13;5017029;28;45385;-77
2021/12/01 04:36:17;;;;;;;;;0.00;0.00;;;;;10.57;100.00;99975.03;5017796;28;45495;-77
2021/12/01 04:38:44;;;;;;;;;0.00;0.00;;;;;10.55;100.00;99997.41;5017256;28;46101;-77
2021/12/01 04:41:12;;;;;;;;;1.00;0.00;;;;;10.54;100.00;99955.13;5016783;28;45850;-76
2021/12/01 04:43:38;;;;;;;;;0.25;0.25;;;;;10.58;100.00;99964.75;5017157;28;45298;-77
2021/12/01 04:46:05;;;;;;;;;0.00;0.00;;;;;10.54;100.00;99960.31;5017019;28;45464;-76
2021/12/01 04:48:31;;;;;;;;;0.00;0.00;;;;;10.52;100.00;99930.91;5016874;28;45344;-76
2021/12/01 04:50:57;;;;;;;;;0.00;0.00;;;;;10.55;100.00;99917.16;5016483;28;45337;-75
2021/12/01 04:53:25;;;;;;;;;0.00;0.00;;;;;10.61;100.00;99904.44;5016812;28;45396;-77
2021/12/01 04:55:51;;;;;;;;;0.00;0.00;;;;;10.58;100.00;99912.09;5016261;28;45340;-77
2021/12/01 04:58:16;;;;;;;;;0.75;0.75;;;;;10.58;100.00;99896.56;5016660;28;45848;-76
2021/12/01 05:00:42;;;;;;;;;0.75;0.75;;;;;10.61;100.00;99897.53;5016748;28;45321;-77
2021/12/01 05:03:08;;;;;;;;;4.00;1.00;;;;;10.64;100.00;99891.56;5016716;28;45236;-77
2021/12/01 05:05:33;;;;;;;;;3.75;2.00;;;;;10.64;100.00;99884.69;5016978;28;45522;-76
2021/12/01 05:07:59;;;;;;;;;0.00;0.00;;;;;10.65;100.00;99878.69;4998433;28;46800;-75
2021/12/01 05:10:25;;;;;;;;;1.00;1.00;;;;;10.62;100.00;99867.38;5016592;28;45352;-76
2021/12/01 05:12:50;;;;;;;;;0.00;0.00;;;;;10.64;100.00;99865.66;5016041;28;45335;-77
2021/12/01 05:15:16;;;;;;;;;1.00;0.00;;;;;10.68;100.00;99883.06;5017203;28;45340;-77
2021/12/01 05:17:42;;;;;;;;;1.00;0.00;;;;;10.67;100.00;99866.66;5016510;28;46103;-76
2021/12/01 05:20:11;;;;;;;;;0.00;0.00;;;;;10.64;100.00;99844.97;5016528;28;45744;-74
2021/12/01 05:22:37;;;;;;;;;1.00;0.00;;;;;10.62;100.00;99855.28;5016602;28;45225;-77
2021/12/01 05:25:02;;;;;;;;;1.00;0.00;;;;;10.62;100.00;99863.06;5016712;28;45574;-77
2021/12/01 05:27:28;;;;;;;;;0.00;0.00;;;;;10.60;100.00;99856.94;5016643;28;45946;-78
2021/12/01 05:29:54;;;;;;;;;0.00;0.00;;;;;10.60;100.00;99867.28;5016241;28;45437;-78
2021/12/01 05:32:20;;;;;;;;;0.00;0.00;;;;;10.52;100.00;99848.97;5016066;28;45495;-78
2021/12/01 05:34:46;;;;;;;;;0.00;0.00;;;;;10.51;100.00;99851.50;5016824;28;45611;-78
2021/12/01 05:37:13;;;;;;;;;0.00;0.00;;;;;10.52;100.00;99846.41;5016289;28;46088;-77
2021/12/01 05:39:44;;;;;;;;;0.00;0.00;;;;;10.39;100.00;99828.75;5016696;28;45635;-78
2021/12/01 05:42:12;;;;;;;;;0.00;0.00;;;;;10.48;100.00;99857.47;5016340;28;45371;-78
2021/12/01 05:44:40;;;;;;;;;0.50;0.00;;;;;10.48;100.00;99846.22;5016835;28;45316;-79
2021/12/01 05:47:05;;;;;;;;;0.00;0.00;;;;;10.46;100.00;99835.84;5014501;28;46024;-79
2021/12/01 05:49:32;;;;;;;;;1.00;0.00;;;;;10.45;100.00;99839.25;5016164;28;45428;-78
2021/12/01 05:51:59;;;;;;;;;0.00;0.00;;;;;10.36;100.00;99813.09;5015973;28;45257;-75
2021/12/01 05:54:26;;;;;;;;;0.75;0.00;;;;;10.46;100.00;99817.72;5016235;28;45690;-76
2021/12/01 05:56:51;;;;;;;;;0.00;0.00;;;;;10.47;100.00;99813.44;5015612;28;45451;-76
2021/12/01 05:59:20;;;;;;;;;0.00;0.00;;;;;10.50;100.00;99805.75;5016177;28;45370;-76
2021/12/01 06:01:46;;;;;;;;;0.00;0.00;;;;;10.51;100.00;99800.63;5016076;28;45417;-78
2021/12/01 06:04:11;;;;;;;;;0.00;0.00;;;;;10.53;100.00;99803.25;5015942;28;45551;-75
2021/12/01 06:06:37;;;;;;;;;0.00;0.00;;;;;10.52;100.00;99789.47;5015756;28;45316;-76
2021/12/01 06:09:05;;;;;;;;;1.00;0.25;;;;;10.56;100.00;99790.41;5017778;28;45316;-76
2021/12/01 06:11:30;;;;;;;;;0.00;0.00;;;;;10.57;100.00;99788.69;5019372;28;45309;-75
2021/12/01 06:13:56;;;;;;;;;0.00;0.00;;;;;10.57;100.00;99745.59;5019395;28;45514;-75
2021/12/01 06:16:23;;;;;;;;;0.00;0.00;;;;;10.63;100.00;99778.53;5019279;28;45968;-75
2021/12/01 06:18:49;;;;;;;;;0.00;0.00;;;;;10.60;100.00;99768.94;5019419;28;45782;-75
2021/12/01 06:21:16;;;;;;;;;0.00;0.00;;;;;10.61;100.00;99764.66;5019637;28;45335;-76
2021/12/01 06:23:42;;;;;;;;;0.00;0.00;;;;;10.60;100.00;99757.72;5019752;28;45375;-76
2021/12/01 06:26:07;;;;;;;;;0.00;0.00;;;;;10.55;100.00;99738.59;5000958;28;45369;-76
2021/12/01 06:28:33;;;;;;;;;1.00;0.00;;;;;10.62;100.00;99767.28;5019121;28;45331;-77
2021/12/01 06:30:59;;;;;;;;;0.00;0.00;;;;;10.63;100.00;99763.84;5000826;28;45611;-75
2021/12/01 06:33:24;;;;;;;;;0.50;0.50;;;;;10.67;100.00;99736.34;5019142;28;45497;-76
2021/12/01 06:35:51;;;;;;;;;0.00;0.00;;;;;10.65;100.00;99744.06;5018550;28;45446;-76
2021/12/01 06:38:19;;;;;;;;;0.00;0.00;;;;;10.69;100.00;99739.84;5001345;28;45700;-75
2021/12/01 06:40:46;;;;;;;;;1.00;0.00;;;;;10.72;100.00;99737.34;5019139;28;45262;-76
2021/12/01 06:43:12;;;;;;;;;1.00;1.00;;;;;10.75;100.00;99742.59;5018931;28;45470;-76
2021/12/01 06:45:38;;;;;;;;;0.00;0.00;;;;;10.72;100.00;99723.50;5017731;28;45900;-75
2021/12/01 06:48:05;;;;;;;;;0.00;0.00;;;;;10.79;100.00;99739.25;5017426;28;45805;-78
2021/12/01 06:50:31;;;;;;;;;0.00;0.00;;;;;10.84;100.00;99731.59;5017448;28;45608;-77
2021/12/01 06:52:57;;;;;;;;;0.00;0.00;;;;;10.92;100.00;99726.63;5015360;28;45496;-77
2021/12/01 06:55:23;;;;;;;;;0.00;0.00;;;;;10.93;100.00;99726.66;5017911;28;45309;-77
2021/12/01 06:57:50;;;;;;;;;0.00;0.00;;;;;10.93;100.00;99725.81;5018173;28;45762;-75
2021/12/01 07:00:17;;;;;;;;;0.00;0.00;;;;;10.94;100.00;99730.16;5018192;28;45246;-75
2021/12/01 07:02:43;;;;;;;;;0.00;0.00;;;;;10.98;100.00;99716.41;5018200;28;45214;-76
2021/12/01 07:05:10;;;;;;;;;0.00;0.00;;;;;10.94;100.00;99704.25;5017316;28;45397;-74
2021/12/01 07:07:37;;;;;;;;;0.00;0.00;;;;;11.03;100.00;99725.19;5018297;28;45735;-74
2021/12/01 07:10:09;;;;;;;;;0.00;0.00;;;;;10.97;100.00;99706.91;5014679;28;45280;-78
2021/12/01 07:12:35;;;;;;;;;0.00;0.00;;;;;11.03;100.00;99738.16;5017117;28;45560;-78
2021/12/01 07:15:02;;;;;;;;;0.00;0.00;;;;;11.04;100.00;99708.81;5017294;28;46146;-78
2021/12/01 07:17:28;;;;;;;;;0.00;0.00;;;;;11.05;100.00;99717.47;5035499;28;45608;-77
2021/12/01 07:19:54;;;;;;;;;1.00;0.00;;;;;11.02;100.00;99715.69;5037865;28;45514;-74
2021/12/01 07:22:19;;;;;;;;;0.00;0.00;;;;;11.04;100.00;99718.28;5020159;28;45235;-79
2021/12/01 07:24:45;;;;;;;;;0.00;0.00;;;;;11.08;100.00;99714.94;5018477;28;45229;-78
2021/12/01 07:27:11;;;;;;;;;0.75;0.00;;;;;11.04;100.00;99714.00;5017789;28;45421;-79
2021/12/01 07:29:37;;;;;;;;;0.00;0.00;;;;;11.07;100.00;99723.56;5020981;28;45482;-79
2021/12/01 07:32:04;;;;;;;;;0.00;0.00;;;;;11.05;100.00;99738.19;5017420;28;45642;-80
2021/12/01 07:34:30;;;;;;;;;0.50;0.00;;;;;11.03;100.00;99727.78;5017289;28;46249;-80
2021/12/01 07:36:56;;;;;;;;;0.00;0.00;;;;;11.05;100.00;99718.34;5007207;28;45345;-78
2021/12/01 07:39:22;;;;;;;;;0.00;0.00;;;;;10.93;100.00;99692.13;5016865;28;45471;-80
2021/12/01 07:41:50;;;;;;;;;0.00;0.00;;;;;11.01;100.00;99713.91;5018286;28;45571;-78
2021/12/01 07:44:16;;;;;;;;;2.00;0.50;;;;;10.94;100.00;99697.34;5017712;28;46240;-78
2021/12/01 07:46:42;;;;;;;;;0.00;0.00;;;;;11.06;100.00;99711.44;5017733;28;45340;-76
2021/12/01 07:49:08;;;;;;;;;0.00;0.00;;;;;11.10;100.00;99716.72;5017384;28;45515;-80
2021/12/01 07:51:34;;;;;;;;;1.50;0.75;;;;;11.15;100.00;99714.25;4999085;28;45650;-80
2021/12/01 07:53:59;;;;;;;;;0.00;0.00;;;;;11.14;100.00;99705.63;5016966;28;45883;-79
2021/12/01 07:56:25;;;;;;;;;0.25;0.00;;;;;11.25;100.00;99712.78;5017327;28;45560;-82
2021/12/01 07:58:50;;;;;;;;;0.00;0.00;;;;;11.17;100.00;99681.50;5017449;28;45332;-80
2021/12/01 08:01:16;;;;;;;;;0.00;0.00;;;;;11.27;100.00;99696.41;5018262;28;45536;-81
2021/12/01 08:03:42;;;;;;;;;0.00;0.00;;;;;11.27;100.00;99695.56;5017223;28;45378;-81
2021/12/01 08:06:08;;;;;;;;;0.00;0.00;;;;;11.28;100.00;99707.69;5034704;28;45383;-79
2021/12/01 08:08:34;;;;;;;;;0.00;0.00;;;;;11.23;100.00;99678.19;5037520;28;45835;-75
2021/12/01 08:11:03;;;;;;;;;1.00;0.00;;;;;11.27;100.00;99680.88;5037468;28;45473;-77
2021/12/01 08:13:39;;;;;;;;;1.00;0.00;;;;;11.29;100.00;99680.91;5034529;28;46375;-80
2021/12/01 08:16:06;;;;;;;;;0.00;0.00;;;;;11.34;100.00;99686.22;5017184;28;45692;-83
2021/12/01 08:18:32;;;;;;;;;0.00;0.00;;;;;11.33;100.00;99669.78;5017735;28;45348;-81
2021/12/01 08:20:58;;;;;;;;;0.25;0.25;;;;;11.32;100.00;99682.72;5020251;28;45404;-80
2021/12/01 08:23:24;;;;;;;;;0.00;0.00;;;;;11.25;100.00;99672.19;5038243;28;46009;-81
2021/12/01 08:25:50;;;;;;;;;0.00;0.00;;;;;11.30;100.00;99686.13;5037089;28;45613;-81
2021/12/01 08:28:16;;;;;;;;;0.25;0.00;;;;;11.30;100.00;99687.84;5019853;28;45534;-80
2021/12/01 08:30:41;;;;;;;;;0.00;0.00;;;;;11.31;100.00;99687.00;5016540;28;45611;-80
2021/12/01 08:33:09;;;;;;;;;1.00;0.00;;;;;11.28;100.00;99682.63;5001083;28;47015;-81
2021/12/01 08:35:35;;;;;;;;;0.00;0.00;;;;;11.35;100.00;99680.16;5022848;28;45563;-83
2021/12/01 08:38:01;;;;;;;;;0.00;0.00;;;;;11.45;100.00;99688.22;5012157;28;45579;-89
2021/12/01 08:40:27;;;;;;;;;0.00;0.00;;;;;11.53;100.00;99682.31;5007061;28;45491;-80
2021/12/01 08:42:53;;;;;;;;;0.00;0.00;;;;;11.59;100.00;99672.09;5021965;28;46050;-81
2021/12/01 08:45:20;;;;;;;;;0.00;0.00;;;;;11.66;100.00;99686.94;5015886;28;45660;-83
2021/12/01 08:47:48;;;;;;;;;0.00;0.00;;;;;11.64;100.00;99678.25;5016652;28;45330;-79
2021/12/01 08:50:14;;;;;;;;;0.00;0.00;;;;;11.67;100.00;99662.75;5017727;28;45643;-81
2021/12/01 08:52:42;;;;;;;;;0.50;0.50;;;;;11.76;100.00;99681.09;5000556;28;47089;-87
2021/12/01 08:55:08;;;;;;;;;1.00;0.00;;;;;11.81;100.00;99675.16;5026113;28;45687;-85
2021/12/01 08:57:34;;;;;;;;;0.00;0.00;;;;;11.79;100.00;99662.13;5035999;28;45865;-81
2021/12/01 08:59:59;;;;;;;;;1.00;0.00;;;;;11.87;100.00;99673.56;5017239;28;45511;-81
2021/12/01 09:02:25;;;;;;;;;0.00;0.00;;;;;11.90;100.00;99673.63;5000932;28;48022;-80
2021/12/01 09:04:50;;;;;;;;;0.00;0.00;;;;;11.79;100.00;99661.28;5018429;28;45771;-83
2021/12/01 09:07:18;;;;;;;;;0.00;0.00;;;;;11.99;100.00;99690.25;5016716;28;45328;-79
2021/12/01 09:09:43;;;;;;;;;0.00;0.00;;;;;11.96;100.00;99680.66;5015525;28;45392;-77
2021/12/01 09:12:09;;;;;;;;;0.00;0.00;;;;;11.95;100.00;99676.31;5014987;28;45979;-79
2021/12/01 09:14:35;;;;;;;;;0.00;0.00;;;;;11.99;100.00;99687.63;5016405;28;45387;-81
2021/12/01 09:17:01;;;;;;;;;0.00;0.00;;;;;11.89;100.00;99682.22;5015862;28;45327;-82
2021/12/01 09:19:27;;;;;;;;;0.00;0.00;;;;;11.84;100.00;99668.31;5015438;28;45522;-83
2021/12/01 09:21:53;;;;;;;;;0.00;0.00;;;;;11.84;100.00;99683.88;5016100;28;45510;-77
2021/12/01 09:24:21;;;;;;;;;2.00;0.00;;;;;11.85;100.00;99698.59;5016051;28;45869;-78
2021/12/01 09:26:48;;;;;;;;;0.75;0.25;;;;;11.82;100.00;99745.19;5016562;28;45405;-77
2021/12/01 09:29:14;;;;;;;;;0.00;0.00;;;;;11.80;100.00;99694.16;4998896;28;45256;-76
2021/12/01 09:31:40;;;;;;;;;0.00;0.00;;;;;11.80;100.00;99700.19;5016273;28;45433;-77
2021/12/01 09:34:05;;;;;;;;;0.75;0.00;;;;;11.73;100.00;99687.94;5015720;28;45353;-77
2021/12/01 09:36:31;;;;;;;;;0.00;0.00;;;;;11.82;100.00;99702.84;5016191;28;45439;-80
2021/12/01 09:38:57;;;;;;;;;0.25;0.25;;;;;11.80;100.00;99694.16;5015941;28;45510;-80
2021/12/01 09:41:24;;;;;;;;;0.00;0.00;;;;;11.83;100.00;99700.28;4998348;28;46691;-82
2021/12/01 09:43:50;;;;;;;;;1.75;0.75;;;;;11.86;100.00;99704.63;4997616;28;45585;-79
2021/12/01 09:46:16;;;;;;;;;0.75;0.75;;;;;11.80;100.00;99689.81;5015508;28;45373;-78
2021/12/01 09:48:44;;;;;;;;;0.00;0.00;;;;;11.89;100.00;99702.97;5014974;28;45439;-78
2021/12/01 09:51:11;;;;;;;;;0.75;0.00;;;;;11.84;100.00;99703.72;5015658;28;46044;-79
2021/12/01 09:53:37;;;;;;;;;1.25;0.00;;;;;11.92;100.00;99712.56;5015950;28;45517;-77
2021/12/01 09:56:04;;;;;;;;;0.75;0.75;;;;;12.01;100.00;99711.91;5016307;28;45384;-79
2021/12/01 09:58:31;;;;;;;;;0.00;0.00;;;;;12.01;100.00;99705.00;5016207;28;45492;-79
2021/12/01 10:01:00;;;;;;;;;0.00;0.00;;;;;11.99;100.00;99709.28;5015493;28;45326;-80
2021/12/01 10:03:27;;;;;;;;;0.00;0.00;;;;;11.96;100.00;99704.00;5015935;28;45341;-79
2021/12/01 10:06:11;;;;;;;;;0.75;0.00;;;;;11.91;100.00;99700.44;5015944;28;45369;-81
2021/12/01 10:08:38;;;;;;;;;0.50;0.00;;;;;11.84;100.00;99711.50;5016257;28;45408;-77
2021/12/01 10:11:09;;;;;;;;;0.00;0.00;;;;;11.72;100.00;99710.38;5015677;28;45615;-78
2021/12/01 10:13:37;;;;;;;;;0.00;0.00;;;;;11.69;100.00;99723.31;4999024;28;45343;-78
2021/12/01 10:16:06;;;;;;;;;1.00;0.00;;;;;11.60;100.00;99720.50;5016801;28;46015;-81
2021/12/01 10:18:46;;;;;;;;;0.50;0.00;;;;;11.48;100.00;99709.84;5000074;28;45232;-79
2021/12/01 10:21:16;;;;;;;;;0.00;0.00;;;;;11.50;100.00;99734.09;5017077;28;46065;-77
2021/12/01 10:23:54;;;;;;;;;0.00;0.00;;;;;11.42;100.00;99718.38;4997595;28;45303;-77
2021/12/01 10:26:27;;;;;;;;;0.00;0.00;;;;;11.32;100.00;99726.75;5015554;28;45391;-77
2021/12/01 10:28:58;;;;;;;;;0.50;0.00;;;;;11.15;100.00;99699.59;5015498;28;45346;-77
2021/12/01 10:31:31;;;;;;;;;2.50;0.00;;;;;11.22;100.00;99720.47;5015088;28;45490;-78
2021/12/01 10:34:13;;;;;;;;;0.00;0.00;;;;;11.20;100.00;99724.72;5014782;28;45748;-77
2021/12/01 10:36:39;;;;;;;;;0.25;0.25;;;;;11.19;100.00;99722.97;4997612;28;45434;-78
2021/12/01 10:39:06;;;;;;;;;0.50;0.50;;;;;11.10;100.00;99702.91;5015358;28;45511;-79
2021/12/01 10:41:36;;;;;;;;;3.25;1.50;;;;;11.15;100.00;99702.19;5015027;28;45439;-78
2021/12/01 10:44:16;;;;;;;;;2.00;1.00;;;;;11.22;100.00;99713.59;5015087;28;45661;-78
2021/12/01 10:46:51;;;;;;;;;0.00;0.00;;;;;11.25;100.00;99715.38;5015388;28;45388;-77
2021/12/01 10:49:31;;;;;;;;;1.00;1.00;;;;;11.23;100.00;99712.72;5015788;28;45272;-80
2021/12/01 10:51:57;;;;;;;;;2.00;2.00;;;;;11.21;100.00;99727.38;5014684;28;45393;-79
2021/12/01 10:54:23;;;;;;;;;1.00;1.00;;;;;11.18;100.00;99724.69;5016957;28;45428;-80
2021/12/01 10:57:19;;;;;;;;;1.00;1.00;;;;;11.18;100.00;99718.63;5022263;28;45292;-78
2021/12/01 10:59:47;;;;;;;;;3.75;1.75;;;;;11.15;100.00;99716.84;5019082;28;45535;-79
2021/12/01 11:02:15;;;;;;;;;2.50;1.50;;;;;11.13;100.00;99714.22;5017971;28;46466;-77
2021/12/01 11:04:58;;;;;;;;;1.50;1.50;;;;;11.10;100.00;99708.09;5018364;28;45356;-79
2021/12/01 11:07:42;;;;;;;;;2.75;2.00;;;;;11.20;100.00;99712.66;5019048;28;45299;-78
2021/12/01 11:10:19;;;;;;;;;0.50;0.50;;;;;11.27;100.00;99730.09;5018511;28;45380;-77
2021/12/01 11:13:04;;;;;;;;;2.50;2.00;;;;;11.26;100.00;99706.75;5018409;28;45336;-80
2021/12/01 11:15:36;;;;;;;;;3.00;1.25;;;;;11.27;100.00;99708.50;5018222;28;45285;-79
2021/12/01 11:18:03;;;;;;;;;2.00;1.00;;;;;11.21;100.00;99711.84;5018116;28;45324;-80
2021/12/01 11:20:42;;;;;;;;;2.00;2.00;;;;;11.15;100.00;99688.34;5018543;28;45614;-79
2021/12/01 11:23:22;;;;;;;;;4.00;1.25;;;;;11.21;100.00;99710.94;5017667;28;45906;-80
2021/12/01 11:25:56;;;;;;;;;1.25;0.25;;;;;11.23;100.00;99714.44;5018436;28;45892;-79
2021/12/01 11:28:27;;;;;;;;;2.00;2.00;;;;;11.13;100.00;99687.44;5017977;28;45396;-78
2021/12/01 11:30:56;;;;;;;;;0.50;0.50;;;;;11.26;100.00;99704.16;5017967;28;45564;-77